createdAt,value
2019-04-26T00:00:07.517Z,0.00
2019-04-26T00:01:07.549Z,0.00
2019-04-26T00:02:07.433Z,0.00
2019-04-26T00:03:06.552Z,0.00
2019-04-26T00:04:06.534Z,0.00
2019-04-26T00:05:06.513Z,0.00
2019-04-26T00:06:06.599Z,0.00
2019-04-26T00:07:06.491Z,0.00
2019-04-26T00:08:06.475Z,0.00
2019-04-26T00:09:06.474Z,0.00
2019-04-26T00:10:06.455Z,0.00
2019-04-26T00:11:06.683Z,0.00
2019-04-26T00:12:06.434Z,0.00
2019-04-26T00:13:06.428Z,0.00
2019-04-26T00:14:06.409Z,0.00
2019-04-26T00:15:06.445Z,0.00
2019-04-26T00:16:06.754Z,0.00
2019-04-26T00:17:06.390Z,0.00
2019-04-26T00:18:06.374Z,0.00
2019-04-26T00:19:06.379Z,0.00
2019-04-26T00:20:06.360Z,0.00
2019-04-26T00:21:06.349Z,0.00
2019-04-26T00:22:06.756Z,0.00
2019-04-26T00:23:06.312Z,0.00
2019-04-26T00:24:06.306Z,0.00
2019-04-26T00:25:06.285Z,0.00
2019-04-26T00:26:06.291Z,0.00
2019-04-26T00:27:06.756Z,0.00
2019-04-26T00:28:06.251Z,0.00
2019-04-26T00:29:06.261Z,0.00
2019-04-26T00:30:06.227Z,0.00
2019-04-26T00:31:06.230Z,0.00
2019-04-26T00:32:06.240Z,0.00
2019-04-26T00:33:06.211Z,0.00
2019-04-26T00:34:06.215Z,0.00
2019-04-26T00:35:06.202Z,0.00
2019-04-26T00:36:06.175Z,0.00
2019-04-26T00:37:06.261Z,0.00
2019-04-26T00:38:06.160Z,0.00
2019-04-26T00:39:06.156Z,0.00
2019-04-26T00:40:06.140Z,0.00
2019-04-26T00:41:06.116Z,0.00
2019-04-26T00:42:06.362Z,0.00
2019-04-26T00:43:06.091Z,0.00
2019-04-26T00:44:06.103Z,0.00
2019-04-26T00:45:06.079Z,0.00
2019-04-26T00:46:06.063Z,0.00
2019-04-26T00:47:06.421Z,0.00
2019-04-26T00:48:06.031Z,0.00
2019-04-26T00:49:06.031Z,0.00
2019-04-26T00:50:06.018Z,0.00
2019-04-26T00:51:06.010Z,0.00
2019-04-26T00:52:06.427Z,0.00
2019-04-26T00:53:05.984Z,0.00
2019-04-26T00:54:05.992Z,0.00
2019-04-26T00:55:05.962Z,0.00
2019-04-26T00:56:05.972Z,0.00
2019-04-26T00:57:06.416Z,0.00
2019-04-26T00:58:05.935Z,0.00
2019-04-26T00:59:05.948Z,0.00
2019-04-26T01:00:05.937Z,0.00
2019-04-26T01:01:05.886Z,0.00
2019-04-26T01:02:05.948Z,0.00
2019-04-26T01:03:05.886Z,0.00
2019-04-26T01:04:05.891Z,0.00
2019-04-26T01:05:05.846Z,0.00
2019-04-26T01:06:05.863Z,0.00
2019-04-26T01:07:05.936Z,0.00
2019-04-26T01:08:05.831Z,0.00
2019-04-26T01:09:05.804Z,0.00
2019-04-26T01:10:05.794Z,0.00
2019-04-26T01:11:05.778Z,0.00
2019-04-26T01:12:05.771Z,0.00
2019-04-26T01:13:06.015Z,0.00
2019-04-26T01:14:05.752Z,0.00
2019-04-26T01:15:05.723Z,0.00
2019-04-26T01:16:05.733Z,0.00
2019-04-26T01:17:05.711Z,0.00
2019-04-26T01:18:06.083Z,0.00
2019-04-26T01:19:05.714Z,0.00
2019-04-26T01:20:05.680Z,0.00
2019-04-26T01:21:05.680Z,0.00
2019-04-26T01:22:05.673Z,0.00
2019-04-26T01:23:06.055Z,0.00
2019-04-26T01:24:05.649Z,0.00
2019-04-26T01:25:05.641Z,0.00
2019-04-26T01:26:05.625Z,0.00
2019-04-26T01:27:05.620Z,0.00
2019-04-26T01:28:06.074Z,0.00
2019-04-26T01:29:05.581Z,0.00
2019-04-26T01:30:05.583Z,0.00
2019-04-26T01:31:05.574Z,0.00
2019-04-26T01:32:05.550Z,0.00
2019-04-26T01:33:05.575Z,0.00
2019-04-26T01:34:05.545Z,0.00
2019-04-26T01:35:05.525Z,0.00
2019-04-26T01:36:12.812Z,0.00
2019-04-26T01:37:06.499Z,0.00
2019-04-26T01:38:05.556Z,0.00
2019-04-26T01:39:05.480Z,0.00
2019-04-26T01:40:05.475Z,0.00
2019-04-26T01:41:05.469Z,0.00
2019-04-26T01:42:05.445Z,0.00
2019-04-26T01:43:05.650Z,0.00
2019-04-26T01:44:05.425Z,0.00
2019-04-26T01:45:05.420Z,0.00
2019-04-26T01:46:05.389Z,0.00
2019-04-26T01:47:05.387Z,0.00
2019-04-26T01:48:05.735Z,0.00
2019-04-26T01:49:05.377Z,0.00
2019-04-26T01:50:05.402Z,0.00
2019-04-26T01:51:05.397Z,0.00
2019-04-26T01:52:05.338Z,0.00
2019-04-26T01:53:05.735Z,0.00
2019-04-26T01:54:05.311Z,0.00
2019-04-26T01:55:05.309Z,0.00
2019-04-26T01:56:05.331Z,0.00
2019-04-26T01:57:05.293Z,0.00
2019-04-26T01:58:05.736Z,0.00
2019-04-26T01:59:05.252Z,0.00
2019-04-26T02:00:05.246Z,0.00
2019-04-26T02:01:05.233Z,0.00
2019-04-26T02:02:05.221Z,0.00
2019-04-26T02:03:05.732Z,0.00
2019-04-26T02:04:05.218Z,0.00
2019-04-26T02:05:05.190Z,0.00
2019-04-26T02:06:05.174Z,0.00
2019-04-26T02:07:05.171Z,0.00
2019-04-26T02:08:05.223Z,0.00
2019-04-26T02:09:05.160Z,0.00
2019-04-26T02:10:05.156Z,0.00
2019-04-26T02:11:05.124Z,0.00
2019-04-26T02:12:05.120Z,0.00
2019-04-26T02:13:05.299Z,0.00
2019-04-26T02:14:05.088Z,0.00
2019-04-26T02:15:05.086Z,0.00
2019-04-26T02:16:05.078Z,0.00
2019-04-26T02:17:05.051Z,0.00
2019-04-26T02:18:05.332Z,0.00
2019-04-26T02:19:05.048Z,0.00
2019-04-26T02:20:05.041Z,0.00
2019-04-26T02:21:05.030Z,0.00
2019-04-26T02:22:05.001Z,0.00
2019-04-26T02:23:05.001Z,0.00
2019-04-26T02:24:05.382Z,0.00
2019-04-26T02:25:04.972Z,0.00
2019-04-26T02:26:04.978Z,0.00
2019-04-26T02:27:04.951Z,0.00
2019-04-26T02:28:04.942Z,0.00
2019-04-26T02:29:05.359Z,0.00
2019-04-26T02:30:04.957Z,0.00
2019-04-26T02:31:04.905Z,0.00
2019-04-26T02:32:04.903Z,0.00
2019-04-26T02:33:04.896Z,0.00
2019-04-26T02:34:05.396Z,0.00
2019-04-26T02:35:04.905Z,0.00
2019-04-26T02:36:04.849Z,0.00
2019-04-26T02:37:04.886Z,0.00
2019-04-26T02:38:04.840Z,0.00
2019-04-26T02:39:04.890Z,0.00
2019-04-26T02:40:04.813Z,0.00
2019-04-26T02:41:04.809Z,0.00
2019-04-26T02:42:04.781Z,0.00
2019-04-26T02:43:04.785Z,0.00
2019-04-26T02:44:04.778Z,0.00
2019-04-26T02:45:04.752Z,0.00
2019-04-26T02:46:04.734Z,0.00
2019-04-26T02:47:04.730Z,0.00
2019-04-26T02:48:04.724Z,0.00
2019-04-26T02:49:04.994Z,0.00
2019-04-26T02:50:04.695Z,0.00
2019-04-26T02:51:04.707Z,0.00
2019-04-26T02:52:04.706Z,0.00
2019-04-26T02:53:04.693Z,0.00
2019-04-26T02:54:05.030Z,0.00
2019-04-26T02:55:04.659Z,0.00
2019-04-26T02:56:04.633Z,0.00
2019-04-26T02:57:04.619Z,0.00
2019-04-26T02:58:04.600Z,0.00
2019-04-26T02:59:05.049Z,0.00
2019-04-26T03:00:04.583Z,0.00
2019-04-26T03:01:04.574Z,0.00
2019-04-26T03:02:04.583Z,0.00
2019-04-26T03:03:04.545Z,0.00
2019-04-26T03:04:04.655Z,0.00
2019-04-26T03:05:04.524Z,0.00
2019-04-26T03:06:04.523Z,0.00
2019-04-26T03:07:04.525Z,0.00
2019-04-26T03:08:04.475Z,0.00
2019-04-26T03:09:04.557Z,0.00
2019-04-26T03:10:04.499Z,0.00
2019-04-26T03:11:04.481Z,0.00
2019-04-26T03:12:04.454Z,0.00
2019-04-26T03:13:04.440Z,0.00
2019-04-26T03:14:04.524Z,0.00
2019-04-26T03:15:13.568Z,0.00
2019-04-26T03:16:05.427Z,0.00
2019-04-26T03:17:04.429Z,0.00
2019-04-26T03:18:04.374Z,0.00
2019-04-26T03:19:04.621Z,0.00
2019-04-26T03:20:04.372Z,0.00
2019-04-26T03:21:04.361Z,0.00
2019-04-26T03:22:04.351Z,0.00
2019-04-26T03:23:04.311Z,0.00
2019-04-26T03:24:04.714Z,0.00
2019-04-26T03:25:04.315Z,0.00
2019-04-26T03:26:04.309Z,0.00
2019-04-26T03:27:04.293Z,0.00
2019-04-26T03:28:04.282Z,0.00
2019-04-26T03:29:04.287Z,0.00
2019-04-26T03:30:18.262Z,0.00
2019-04-26T03:31:05.254Z,0.00
2019-04-26T03:32:04.264Z,0.00
2019-04-26T03:33:04.330Z,0.00
2019-04-26T03:34:04.313Z,0.00
2019-04-26T03:35:04.686Z,0.00
2019-04-26T03:36:04.257Z,0.00
2019-04-26T03:37:19.713Z,0.00
2019-04-26T03:38:05.188Z,0.00
2019-04-26T03:39:04.186Z,0.00
2019-04-26T03:40:04.178Z,0.00
2019-04-26T03:41:04.157Z,0.00
2019-04-26T03:42:04.119Z,0.00
2019-04-26T03:43:04.111Z,0.00
2019-04-26T03:44:04.092Z,0.00
2019-04-26T03:45:04.278Z,0.00
2019-04-26T03:46:04.109Z,0.00
2019-04-26T03:47:04.070Z,0.00
2019-04-26T03:48:04.058Z,0.00
2019-04-26T03:49:04.090Z,0.00
2019-04-26T03:50:04.288Z,0.00
2019-04-26T03:51:04.026Z,0.00
2019-04-26T03:52:04.027Z,0.00
2019-04-26T03:53:04.011Z,0.00
2019-04-26T03:54:03.994Z,0.00
2019-04-26T03:55:04.362Z,0.00
2019-04-26T03:56:03.971Z,0.00
2019-04-26T03:57:03.961Z,0.00
2019-04-26T03:58:03.939Z,0.00
2019-04-26T03:59:03.941Z,0.00
2019-04-26T04:00:04.344Z,0.00
2019-04-26T04:01:03.946Z,0.00
2019-04-26T04:02:03.918Z,0.00
2019-04-26T04:03:03.877Z,0.00
2019-04-26T04:04:03.887Z,0.00
2019-04-26T04:05:04.369Z,0.00
2019-04-26T04:06:03.858Z,0.00
2019-04-26T04:07:05.101Z,0.00
2019-04-26T04:08:03.854Z,0.00
2019-04-26T04:09:03.830Z,0.00
2019-04-26T04:10:03.842Z,0.00
2019-04-26T04:11:03.799Z,0.00
2019-04-26T04:12:11.485Z,0.00
2019-04-26T04:13:04.942Z,0.00
2019-04-26T04:14:03.893Z,0.00
2019-04-26T04:15:04.005Z,0.00
2019-04-26T04:16:03.757Z,0.00
2019-04-26T04:17:03.735Z,0.00
2019-04-26T04:18:03.721Z,0.00
2019-04-26T04:19:03.723Z,0.00
2019-04-26T04:20:03.711Z,0.00
2019-04-26T04:21:04.011Z,0.00
2019-04-26T04:22:03.773Z,0.00
2019-04-26T04:23:03.673Z,0.00
2019-04-26T04:24:03.651Z,0.00
2019-04-26T04:25:03.666Z,0.00
2019-04-26T04:26:04.015Z,0.00
2019-04-26T04:27:03.629Z,0.00
2019-04-26T04:28:03.629Z,0.00
2019-04-26T04:29:03.608Z,0.00
2019-04-26T04:30:03.589Z,0.00
2019-04-26T04:31:04.039Z,0.00
2019-04-26T04:32:03.568Z,0.00
2019-04-26T04:33:03.568Z,0.00
2019-04-26T04:34:03.560Z,0.00
2019-04-26T04:35:06.573Z,0.00
2019-04-26T04:36:04.027Z,0.00
2019-04-26T04:37:03.520Z,5.62
2019-04-26T04:38:09.294Z,5.62
2019-04-26T04:39:12.293Z,5.62
2019-04-26T04:40:04.490Z,5.62
2019-04-26T04:41:03.529Z,5.62
2019-04-26T04:42:03.478Z,5.62
2019-04-26T04:43:03.505Z,5.62
2019-04-26T04:44:03.447Z,5.62
2019-04-26T04:45:03.446Z,5.62
2019-04-26T04:46:03.745Z,5.62
2019-04-26T04:47:03.412Z,5.62
2019-04-26T04:48:03.404Z,5.62
2019-04-26T04:49:03.451Z,5.62
2019-04-26T04:50:03.397Z,5.62
2019-04-26T04:51:03.762Z,5.62
2019-04-26T04:52:03.356Z,5.62
2019-04-26T04:53:03.352Z,5.62
2019-04-26T04:54:03.336Z,5.62
2019-04-26T04:55:07.797Z,11.25
2019-04-26T04:56:03.664Z,11.25
2019-04-26T04:57:03.291Z,11.25
2019-04-26T04:58:03.287Z,11.25
2019-04-26T04:59:03.262Z,11.25
2019-04-26T05:00:03.275Z,11.25
2019-04-26T05:01:03.271Z,11.25
2019-04-26T05:02:03.255Z,16.88
2019-04-26T05:03:03.212Z,16.88
2019-04-26T05:04:03.231Z,16.88
2019-04-26T05:05:03.212Z,22.50
2019-04-26T05:06:07.536Z,22.50
2019-04-26T05:07:03.184Z,22.50
2019-04-26T05:08:06.654Z,22.50
2019-04-26T05:09:03.162Z,28.12
2019-04-26T05:10:03.162Z,28.12
2019-04-26T05:11:03.215Z,28.12
2019-04-26T05:12:03.145Z,28.12
2019-04-26T05:13:03.117Z,33.75
2019-04-26T05:14:03.116Z,33.75
2019-04-26T05:15:03.097Z,33.75
2019-04-26T05:16:03.174Z,39.38
2019-04-26T05:17:03.069Z,39.38
2019-04-26T05:18:03.063Z,45.00
2019-04-26T05:19:03.066Z,45.00
2019-04-26T05:20:03.022Z,50.62
2019-04-26T05:21:03.301Z,50.62
2019-04-26T05:22:03.009Z,45.00
2019-04-26T05:23:03.008Z,45.00
2019-04-26T05:24:02.998Z,39.38
2019-04-26T05:25:03.008Z,33.75
2019-04-26T05:26:02.983Z,28.12
2019-04-26T05:27:03.331Z,28.12
2019-04-26T05:28:02.954Z,22.50
2019-04-26T05:29:02.948Z,28.12
2019-04-26T05:30:02.930Z,28.12
2019-04-26T05:31:02.906Z,28.12
2019-04-26T05:32:03.348Z,33.75
2019-04-26T05:33:02.899Z,39.38
2019-04-26T05:34:02.918Z,45.00
2019-04-26T05:35:02.854Z,45.00
2019-04-26T05:36:02.867Z,50.62
2019-04-26T05:37:03.347Z,56.25
2019-04-26T05:38:02.847Z,61.88
2019-04-26T05:39:02.835Z,67.50
2019-04-26T05:40:02.823Z,67.50
2019-04-26T05:41:02.832Z,73.12
2019-04-26T05:42:02.848Z,73.12
2019-04-26T05:43:02.784Z,73.12
2019-04-26T05:44:02.779Z,73.12
2019-04-26T05:45:02.774Z,73.12
2019-04-26T05:46:02.735Z,73.12
2019-04-26T05:47:02.860Z,73.12
2019-04-26T05:48:10.720Z,73.12
2019-04-26T05:49:03.718Z,73.12
2019-04-26T05:50:02.709Z,73.12
2019-04-26T05:51:02.694Z,78.75
2019-04-26T05:52:02.958Z,90.00
2019-04-26T05:53:02.679Z,95.62
2019-04-26T05:54:02.662Z,112.50
2019-04-26T05:55:02.750Z,123.75
2019-04-26T05:56:02.658Z,129.38
2019-04-26T05:57:02.993Z,118.12
2019-04-26T05:58:02.926Z,106.88
2019-04-26T05:59:03.142Z,101.25
2019-04-26T06:00:02.611Z,101.25
2019-04-26T06:01:02.579Z,106.88
2019-04-26T06:02:03.003Z,106.88
2019-04-26T06:03:02.555Z,112.50
2019-04-26T06:04:02.674Z,112.50
2019-04-26T06:05:02.556Z,118.12
2019-04-26T06:06:05.237Z,112.50
2019-04-26T06:07:02.993Z,106.88
2019-04-26T06:08:03.038Z,106.88
2019-04-26T06:09:02.529Z,106.88
2019-04-26T06:10:03.117Z,106.88
2019-04-26T06:11:02.717Z,95.62
2019-04-26T06:12:02.487Z,84.38
2019-04-26T06:13:02.971Z,67.50
2019-04-26T06:14:02.440Z,61.88
2019-04-26T06:15:02.445Z,56.25
2019-04-26T06:16:02.477Z,56.25
2019-04-26T06:17:02.508Z,56.25
2019-04-26T06:18:02.399Z,61.88
2019-04-26T06:19:02.390Z,67.50
2019-04-26T06:20:02.634Z,67.50
2019-04-26T06:21:02.366Z,67.50
2019-04-26T06:22:02.611Z,67.50
2019-04-26T06:23:02.334Z,67.50
2019-04-26T06:24:02.346Z,61.88
2019-04-26T06:25:02.928Z,61.88
2019-04-26T06:26:03.398Z,61.88
2019-04-26T06:27:13.342Z,61.88
2019-04-26T06:28:03.317Z,61.88
2019-04-26T06:29:03.233Z,61.88
2019-04-26T06:30:03.336Z,61.88
2019-04-26T06:31:02.246Z,61.88
2019-04-26T06:32:02.658Z,61.88
2019-04-26T06:33:05.534Z,61.88
2019-04-26T06:34:03.005Z,61.88
2019-04-26T06:35:03.421Z,56.25
2019-04-26T06:36:02.254Z,56.25
2019-04-26T06:37:02.352Z,50.62
2019-04-26T06:38:03.921Z,50.62
2019-04-26T06:39:02.221Z,50.62
2019-04-26T06:40:02.308Z,50.62
2019-04-26T06:41:02.530Z,50.62
2019-04-26T06:42:02.900Z,50.62
2019-04-26T06:43:02.763Z,56.25
2019-04-26T06:44:02.725Z,56.25
2019-04-26T06:45:02.885Z,56.25
2019-04-26T06:46:02.694Z,56.25
2019-04-26T06:47:02.093Z,61.88
2019-04-26T06:48:02.199Z,61.88
2019-04-26T06:49:02.048Z,61.88
2019-04-26T06:50:02.054Z,67.50
2019-04-26T06:51:02.738Z,67.50
2019-04-26T06:52:02.584Z,67.50
2019-04-26T06:53:02.258Z,67.50
2019-04-26T06:54:01.991Z,61.88
2019-04-26T06:55:02.271Z,61.88
2019-04-26T06:56:02.918Z,61.88
2019-04-26T06:57:11.557Z,61.88
2019-04-26T06:58:03.308Z,61.88
2019-04-26T06:59:01.974Z,61.88
2019-04-26T07:00:02.313Z,61.88
2019-04-26T07:01:01.934Z,61.88
2019-04-26T07:02:02.927Z,61.88
2019-04-26T07:03:03.550Z,61.88
2019-04-26T07:04:02.116Z,67.50
2019-04-26T07:05:02.876Z,67.50
2019-04-26T07:06:02.482Z,73.12
2019-04-26T07:07:02.642Z,84.38
2019-04-26T07:08:03.309Z,90.00
2019-04-26T07:09:02.695Z,95.62
2019-04-26T07:10:02.035Z,101.25
2019-04-26T07:11:02.752Z,106.88
2019-04-26T07:12:02.874Z,106.88
2019-04-26T07:13:02.323Z,106.88
2019-04-26T07:14:02.694Z,106.88
2019-04-26T07:15:02.239Z,106.88
2019-04-26T07:16:16.056Z,101.25
2019-04-26T07:17:02.754Z,101.25
2019-04-26T07:18:02.169Z,106.88
2019-04-26T07:19:01.736Z,118.12
2019-04-26T07:20:03.988Z,129.38
2019-04-26T07:21:01.706Z,140.62
2019-04-26T07:22:02.009Z,151.88
2019-04-26T07:23:02.107Z,151.88
2019-04-26T07:24:02.777Z,163.12
2019-04-26T07:25:01.648Z,168.75
2019-04-26T07:26:01.727Z,174.38
2019-04-26T07:27:03.008Z,180.00
2019-04-26T07:28:06.026Z,185.62
2019-04-26T07:29:03.039Z,185.62
2019-04-26T07:30:03.264Z,196.88
2019-04-26T07:31:02.627Z,208.12
2019-04-26T07:32:02.278Z,213.75
2019-04-26T07:33:02.421Z,219.38
2019-04-26T07:34:02.374Z,225.00
2019-04-26T07:35:02.637Z,241.88
2019-04-26T07:36:02.740Z,247.50
2019-04-26T07:37:02.866Z,258.75
2019-04-26T07:38:02.631Z,264.38
2019-04-26T07:39:13.500Z,275.62
2019-04-26T07:40:02.971Z,281.25
2019-04-26T07:41:01.617Z,286.88
2019-04-26T07:42:01.781Z,298.12
2019-04-26T07:43:01.832Z,303.75
2019-04-26T07:44:02.761Z,303.75
2019-04-26T07:45:02.229Z,309.38
2019-04-26T07:46:02.916Z,309.38
2019-04-26T07:47:01.516Z,309.38
2019-04-26T07:48:03.153Z,309.38
2019-04-26T07:49:01.690Z,309.38
2019-04-26T07:50:03.512Z,309.38
2019-04-26T07:51:02.984Z,309.38
2019-04-26T07:52:02.779Z,309.38
2019-04-26T07:53:03.241Z,292.50
2019-04-26T07:54:02.285Z,281.25
2019-04-26T07:55:03.188Z,270.00
2019-04-26T07:56:02.299Z,264.38
2019-04-26T07:57:03.083Z,264.38
2019-04-26T07:58:01.332Z,264.38
2019-04-26T07:59:04.192Z,258.75
2019-04-26T08:00:01.290Z,258.75
2019-04-26T08:01:01.287Z,253.12
2019-04-26T08:02:01.278Z,247.50
2019-04-26T08:03:01.252Z,241.88
2019-04-26T08:04:01.613Z,236.25
2019-04-26T08:05:01.226Z,236.25
2019-04-26T08:06:01.221Z,230.62
2019-04-26T08:07:01.230Z,225.00
2019-04-26T08:08:01.200Z,213.75
2019-04-26T08:09:01.624Z,202.50
2019-04-26T08:10:01.191Z,191.25
2019-04-26T08:11:01.178Z,185.62
2019-04-26T08:12:01.177Z,168.75
2019-04-26T08:13:01.137Z,151.88
2019-04-26T08:14:01.638Z,140.62
2019-04-26T08:15:01.135Z,140.62
2019-04-26T08:16:01.109Z,135.00
2019-04-26T08:17:01.100Z,140.62
2019-04-26T08:18:01.079Z,140.62
2019-04-26T08:19:01.118Z,146.25
2019-04-26T08:20:01.087Z,157.50
2019-04-26T08:21:02.532Z,168.75
2019-04-26T08:22:14.827Z,174.38
2019-04-26T08:23:02.722Z,185.62
2019-04-26T08:24:01.132Z,191.25
2019-04-26T08:25:01.018Z,196.88
2019-04-26T08:26:09.077Z,196.88
2019-04-26T08:27:08.765Z,202.50
2019-04-26T08:28:01.985Z,202.50
2019-04-26T08:29:12.617Z,202.50
2019-04-26T08:30:03.485Z,196.88
2019-04-26T08:31:04.599Z,196.88
2019-04-26T08:32:00.942Z,191.25
2019-04-26T08:33:02.077Z,196.88
2019-04-26T08:34:01.948Z,202.50
2019-04-26T08:35:02.323Z,202.50
2019-04-26T08:36:01.915Z,213.75
2019-04-26T08:37:01.931Z,225.00
2019-04-26T08:38:00.901Z,225.00
2019-04-26T08:39:18.833Z,230.62
2019-04-26T08:40:00.855Z,225.00
2019-04-26T08:41:08.595Z,225.00
2019-04-26T08:42:01.668Z,225.00
2019-04-26T08:43:05.905Z,230.62
2019-04-26T08:44:03.744Z,236.25
2019-04-26T08:45:04.694Z,241.88
2019-04-26T08:46:03.483Z,247.50
2019-04-26T08:47:00.794Z,253.12
2019-04-26T08:48:00.783Z,253.12
2019-04-26T08:49:02.129Z,258.75
2019-04-26T08:50:00.789Z,264.38
2019-04-26T08:51:00.750Z,275.62
2019-04-26T08:52:00.735Z,281.25
2019-04-26T08:53:00.716Z,286.88
2019-04-26T08:54:00.960Z,286.88
2019-04-26T08:55:00.718Z,281.25
2019-04-26T08:56:00.728Z,281.25
2019-04-26T08:57:00.672Z,281.25
2019-04-26T08:58:00.673Z,286.88
2019-04-26T08:59:00.954Z,298.12
2019-04-26T09:00:00.657Z,309.38
2019-04-26T09:01:00.649Z,315.00
2019-04-26T09:02:00.618Z,320.62
2019-04-26T09:03:10.967Z,315.00
2019-04-26T09:04:02.022Z,315.00
2019-04-26T09:05:00.577Z,315.00
2019-04-26T09:06:00.577Z,320.62
2019-04-26T09:07:00.552Z,320.62
2019-04-26T09:08:00.558Z,326.25
2019-04-26T09:09:01.009Z,331.88
2019-04-26T09:10:01.555Z,343.12
2019-04-26T09:11:01.528Z,354.38
2019-04-26T09:12:03.872Z,365.62
2019-04-26T09:13:01.489Z,376.88
2019-04-26T09:14:00.998Z,405.00
2019-04-26T09:15:00.470Z,421.88
2019-04-26T09:16:00.535Z,410.62
2019-04-26T09:17:00.480Z,393.75
2019-04-26T09:18:02.165Z,388.12
2019-04-26T09:19:00.440Z,399.38
2019-04-26T09:20:07.195Z,416.25
2019-04-26T09:21:01.406Z,438.75
2019-04-26T09:22:12.538Z,472.50
2019-04-26T09:23:03.888Z,472.50
2019-04-26T09:24:00.598Z,483.75
2019-04-26T09:25:01.031Z,483.75
2019-04-26T09:26:00.365Z,478.12
2019-04-26T09:27:00.380Z,478.12
2019-04-26T09:28:00.363Z,466.88
2019-04-26T09:29:00.581Z,438.75
2019-04-26T09:30:00.533Z,410.62
2019-04-26T09:31:00.318Z,382.50
2019-04-26T09:32:00.287Z,371.25
2019-04-26T09:33:02.017Z,354.38
2019-04-26T09:34:00.686Z,343.12
2019-04-26T09:35:00.266Z,337.50
2019-04-26T09:36:00.250Z,331.88
2019-04-26T09:37:00.256Z,331.88
2019-04-26T09:38:00.234Z,320.62
2019-04-26T09:39:03.987Z,309.38
2019-04-26T09:40:09.999Z,298.12
2019-04-26T09:41:01.193Z,292.50
2019-04-26T09:42:01.136Z,292.50
2019-04-26T09:43:02.506Z,298.12
2019-04-26T09:44:00.668Z,315.00
2019-04-26T09:45:00.155Z,337.50
2019-04-26T09:46:00.128Z,360.00
2019-04-26T09:47:00.137Z,393.75
2019-04-26T09:48:00.099Z,438.75
2019-04-26T09:49:03.106Z,500.62
2019-04-26T09:50:01.118Z,528.75
2019-04-26T09:51:00.074Z,534.38
2019-04-26T09:52:00.177Z,506.25
2019-04-26T09:53:00.063Z,450.00
2019-04-26T09:54:00.043Z,416.25
2019-04-26T09:55:00.042Z,388.12
2019-04-26T09:56:00.030Z,365.62
2019-04-26T09:57:00.262Z,354.38
2019-04-26T09:58:00.028Z,343.12
2019-04-26T09:59:01.456Z,337.50
2019-04-26T10:00:01.033Z,326.25
2019-04-26T10:00:59.973Z,309.38
2019-04-26T10:02:00.322Z,292.50
2019-04-26T10:02:59.984Z,270.00
2019-04-26T10:03:59.988Z,253.12
2019-04-26T10:05:08.022Z,236.25
2019-04-26T10:05:59.934Z,230.62
2019-04-26T10:07:10.834Z,225.00
2019-04-26T10:07:59.911Z,225.00
2019-04-26T10:08:59.876Z,213.75
2019-04-26T10:10:00.934Z,196.88
2019-04-26T10:10:59.890Z,196.88
2019-04-26T10:11:59.880Z,202.50
2019-04-26T10:12:59.871Z,213.75
2019-04-26T10:13:59.849Z,219.38
2019-04-26T10:14:59.845Z,236.25
2019-04-26T10:16:02.491Z,253.12
2019-04-26T10:16:59.796Z,264.38
2019-04-26T10:17:59.839Z,275.62
2019-04-26T10:18:59.773Z,292.50
2019-04-26T10:19:59.821Z,315.00
2019-04-26T10:20:59.759Z,343.12
2019-04-26T10:21:59.763Z,371.25
2019-04-26T10:22:59.761Z,393.75
2019-04-26T10:23:59.739Z,393.75
2019-04-26T10:25:02.342Z,382.50
2019-04-26T10:26:00.695Z,371.25
2019-04-26T10:27:03.403Z,371.25
2019-04-26T10:28:00.697Z,382.50
2019-04-26T10:28:59.682Z,444.38
2019-04-26T10:30:07.751Z,506.25
2019-04-26T10:31:00.638Z,528.75
2019-04-26T10:31:59.631Z,534.38
2019-04-26T10:33:02.117Z,506.25
2019-04-26T10:33:59.595Z,489.38
2019-04-26T10:34:59.609Z,495.00
2019-04-26T10:35:59.588Z,511.88
2019-04-26T10:37:01.685Z,534.38
2019-04-26T10:38:01.014Z,556.88
2019-04-26T10:38:59.779Z,585.00
2019-04-26T10:39:59.561Z,663.75
2019-04-26T10:40:59.523Z,804.38
2019-04-26T10:41:59.539Z,708.75
2019-04-26T10:43:00.008Z,714.38
2019-04-26T10:43:59.495Z,601.88
2019-04-26T10:44:59.485Z,562.50
2019-04-26T10:45:59.493Z,551.25
2019-04-26T10:46:59.920Z,562.50
2019-04-26T10:47:59.516Z,573.75
2019-04-26T10:49:08.927Z,573.75
2019-04-26T10:50:00.416Z,596.25
2019-04-26T10:50:59.422Z,568.12
2019-04-26T10:51:59.421Z,489.38
2019-04-26T10:52:59.590Z,466.88
2019-04-26T10:54:01.765Z,399.38
2019-04-26T10:55:00.375Z,382.50
2019-04-26T10:55:59.408Z,399.38
2019-04-26T10:56:59.385Z,461.25
2019-04-26T10:57:59.654Z,540.00
2019-04-26T10:58:59.337Z,613.12
2019-04-26T10:59:59.347Z,545.62
2019-04-26T11:00:59.307Z,500.62
2019-04-26T11:01:59.332Z,461.25
2019-04-26T11:03:00.019Z,427.50
2019-04-26T11:03:59.307Z,405.00
2019-04-26T11:04:59.288Z,382.50
2019-04-26T11:05:59.277Z,348.75
2019-04-26T11:07:01.910Z,320.62
2019-04-26T11:07:59.247Z,292.50
2019-04-26T11:08:59.220Z,270.00
2019-04-26T11:09:59.224Z,247.50
2019-04-26T11:10:59.227Z,247.50
2019-04-26T11:11:59.182Z,247.50
2019-04-26T11:12:59.674Z,241.88
2019-04-26T11:13:59.152Z,225.00
2019-04-26T11:14:59.153Z,213.75
2019-04-26T11:16:02.468Z,196.88
2019-04-26T11:17:00.130Z,185.62
2019-04-26T11:17:59.187Z,185.62
2019-04-26T11:19:01.182Z,202.50
2019-04-26T11:19:59.102Z,225.00
2019-04-26T11:20:59.079Z,258.75
2019-04-26T11:21:59.082Z,292.50
2019-04-26T12:04:20.154Z,556.88
2019-04-26T12:05:20.080Z,540.00
2019-04-26T12:06:21.378Z,517.50
2019-04-26T12:07:20.074Z,511.88
2019-04-26T12:08:20.647Z,511.88
2019-04-26T12:09:20.040Z,511.88
2019-04-26T12:10:20.026Z,511.88
2019-04-26T12:11:26.225Z,511.88
2019-04-26T12:12:21.030Z,511.88
2019-04-26T12:13:21.257Z,506.25
2019-04-26T12:14:20.771Z,511.88
2019-04-26T12:15:30.100Z,517.50
2019-04-26T12:16:20.980Z,517.50
2019-04-26T12:17:19.956Z,506.25
2019-04-26T12:18:19.966Z,495.00
2019-04-26T12:19:20.323Z,495.00
2019-04-26T12:20:22.342Z,495.00
2019-04-26T12:21:20.953Z,495.00
2019-04-26T12:22:19.900Z,489.38
2019-04-26T12:23:21.770Z,483.75
2019-04-26T12:24:19.902Z,466.88
2019-04-26T12:25:19.894Z,444.38
2019-04-26T12:26:21.628Z,405.00
2019-04-26T12:27:19.918Z,371.25
2019-04-26T12:28:19.865Z,337.50
2019-04-26T12:29:20.293Z,315.00
2019-04-26T12:30:23.202Z,292.50
2019-04-26T12:31:20.827Z,275.62
2019-04-26T12:32:19.833Z,275.62
2019-04-26T12:33:19.789Z,286.88
2019-04-26T12:34:19.805Z,315.00
2019-04-26T12:35:19.786Z,360.00
2019-04-26T12:36:19.761Z,405.00
2019-04-26T12:37:21.051Z,438.75
2019-04-26T12:38:19.748Z,472.50
2019-04-26T12:39:19.813Z,495.00
2019-04-26T12:40:19.745Z,523.12
2019-04-26T12:41:25.314Z,551.25
2019-04-26T12:42:20.708Z,562.50
2019-04-26T12:43:20.198Z,573.75
2019-04-26T12:44:19.899Z,579.38
2019-04-26T12:45:19.643Z,585.00
2019-04-26T12:46:22.783Z,590.62
2019-04-26T12:47:20.653Z,596.25
2019-04-26T12:48:19.639Z,590.62
2019-04-26T12:49:20.236Z,579.38
2019-04-26T12:50:19.623Z,556.88
2019-04-26T12:51:19.604Z,545.62
2019-04-26T12:52:21.645Z,528.75
2019-04-26T12:53:19.560Z,517.50
2019-04-26T12:54:19.902Z,506.25
2019-04-26T12:55:20.227Z,506.25
2019-04-26T12:56:19.538Z,506.25
2019-04-26T12:57:19.537Z,506.25
2019-04-26T12:58:19.498Z,517.50
2019-04-26T12:59:22.359Z,540.00
2019-04-26T13:00:20.479Z,562.50
2019-04-26T13:01:19.485Z,568.12
2019-04-26T13:02:20.991Z,579.38
2019-04-26T13:03:20.733Z,585.00
2019-04-26T13:04:19.899Z,590.62
2019-04-26T13:05:20.593Z,590.62
2019-04-26T13:06:19.431Z,579.38
2019-04-26T13:07:23.731Z,562.50
2019-04-26T13:08:19.442Z,540.00
2019-04-26T13:09:21.877Z,534.38
2019-04-26T13:10:20.415Z,517.50
2019-04-26T13:11:19.385Z,500.62
2019-04-26T13:12:19.382Z,489.38
2019-04-26T13:13:19.358Z,455.62
2019-04-26T13:14:19.430Z,433.12
2019-04-26T13:15:19.335Z,427.50
2019-04-26T13:16:21.446Z,427.50
2019-04-26T13:17:20.339Z,455.62
2019-04-26T13:18:19.322Z,506.25
2019-04-26T13:19:20.004Z,540.00
2019-04-26T13:20:19.306Z,545.62
2019-04-26T13:21:19.301Z,545.62
2019-04-26T13:22:19.255Z,534.38
2019-04-26T13:23:19.238Z,523.12
2019-04-26T13:24:19.508Z,511.88
2019-04-26T13:25:26.246Z,511.88
2019-04-26T13:26:20.206Z,500.62
2019-04-26T13:27:19.201Z,489.38
2019-04-26T13:28:20.336Z,478.12
2019-04-26T13:29:19.554Z,461.25
2019-04-26T13:30:22.840Z,455.62
2019-04-26T13:31:20.184Z,438.75